Time;durP1;ratioP1;P1;durP2;ratioP2;P2;SDS_P1;SDS_P2;PMS_P1;PMS_P2;Temp;Humidity;BMP_temperature;BMP_pressure;BME280_temperature;BME280_humidity;BME280_pressure;Samples;Min_cycle;Max_cycle;Signal;HPM_P1;HPM_P2
2023/03/23 00:01:53;;;;;;;15.82;8.93;;;10.20;99.90;;;;;;5053778;28;20045;-73
2023/03/23 00:04:20;;;;;;;13.88;8.57;;;10.20;99.90;;;;;;5035287;28;20056;-73
2023/03/23 00:06:46;;;;;;;12.50;8.10;;;10.30;99.90;;;;;;5035004;28;20498;-74
2023/03/23 00:09:15;;;;;;;12.80;8.63;;;10.20;99.90;;;;;;5034286;28;20037;-73
2023/03/23 00:11:42;;;;;;;14.60;9.82;;;10.20;99.90;;;;;;5035313;28;20037;-74
2023/03/23 00:14:13;;;;;;;10.85;7.75;;;10.30;99.90;;;;;;5027845;28;20034;-74
2023/03/23 00:16:40;;;;;;;11.88;7.55;;;10.30;99.90;;;;;;5033567;28;20168;-74
2023/03/23 00:19:15;;;;;;;13.18;7.88;;;10.30;99.90;;;;;;5014692;28;20492;-73
2023/03/23 00:21:42;;;;;;;11.32;7.20;;;10.30;99.90;;;;;;5015703;28;20095;-73
2023/03/23 00:24:18;;;;;;;11.40;7.65;;;10.30;99.90;;;;;;5015010;28;20122;-73
2023/03/23 00:26:46;;;;;;;10.88;7.93;;;10.30;99.90;;;;;;5015130;28;20041;-73
2023/03/23 00:29:22;;;;;;;14.43;10.05;;;10.30;99.90;;;;;;5014965;28;20037;-73
2023/03/23 00:31:49;;;;;;;16.58;12.95;;;10.40;99.90;;;;;;5033351;28;20037;-73
2023/03/23 00:34:24;;;;;;;20.00;14.13;;;10.40;99.90;;;;;;5031670;28;20045;-73
2023/03/23 00:36:53;;;;;;;21.67;16.98;;;10.40;99.90;;;;;;5015764;28;20033;-73
2023/03/23 00:39:19;;;;;;;23.70;18.65;;;10.40;99.90;;;;;;5032520;28;20060;-73
2023/03/23 00:41:46;;;;;;;28.65;18.98;;;10.40;99.90;;;;;;5014583;28;20046;-73
2023/03/23 00:44:17;;;;;;;25.05;18.85;;;10.40;99.90;;;;;;5014923;28;20371;-73
2023/03/23 00:46:48;;;;;;;28.45;18.73;;;10.40;99.90;;;;;;5015180;28;20044;-73
2023/03/23 00:49:16;;;;;;;25.10;17.98;;;10.50;99.90;;;;;;5031546;28;20107;-72
2023/03/23 00:51:42;;;;;;;25.92;18.67;;;10.40;99.90;;;;;;5018160;28;20033;-73
2023/03/23 00:54:08;;;;;;;22.67;16.42;;;10.50;99.90;;;;;;5033712;28;20036;-73
2023/03/23 00:56:35;;;;;;;20.38;14.05;;;10.40;99.90;;;;;;5034967;28;20393;-73
2023/03/23 00:59:01;;;;;;;21.88;14.00;;;10.40;99.90;;;;;;5052372;28;20045;-73
2023/03/23 01:01:26;;;;;;;17.60;11.85;;;10.40;99.90;;;;;;5033665;28;20045;-73
2023/03/23 01:04:00;;;;;;;16.48;11.63;;;10.40;99.90;;;;;;5034675;28;20044;-73
2023/03/23 01:06:30;;;;;;;16.02;10.57;;;10.40;99.90;;;;;;5034485;28;20087;-73
2023/03/23 01:08:57;;;;;;;13.40;9.23;;;10.30;99.90;;;;;;5033819;28;20045;-73
2023/03/23 01:11:24;;;;;;;15.02;9.45;;;10.30;99.90;;;;;;5051636;28;20550;-72
2023/03/23 01:13:50;;;;;;;12.38;8.70;;;10.30;99.90;;;;;;5052142;28;20068;-72
2023/03/23 01:16:16;;;;;;;13.85;9.57;;;10.30;99.90;;;;;;5033422;28;20099;-72
2023/03/23 01:18:42;;;;;;;10.90;8.30;;;10.40;99.90;;;;;;5034784;28;20501;-72
2023/03/23 01:21:10;;;;;;;14.10;8.77;;;10.40;99.90;;;;;;5051273;28;20124;-72
2023/03/23 01:23:36;;;;;;;12.30;8.98;;;10.40;99.90;;;;;;5033725;28;20086;-73
2023/03/23 01:26:29;;;;;;;13.43;9.52;;;10.40;99.90;;;;;;5034105;28;20041;-72
2023/03/23 01:28:55;;;;;;;13.07;8.93;;;10.40;99.90;;;;;;5030054;28;20049;-72
2023/03/23 01:31:26;;;;;;;13.68;9.27;;;10.50;99.90;;;;;;5050910;28;20170;-72
2023/03/23 01:33:52;;;;;;;15.50;10.02;;;10.50;99.90;;;;;;5034440;28;20048;-72
2023/03/23 01:36:28;;;;;;;15.60;9.30;;;10.50;99.90;;;;;;5033503;28;20082;-72
2023/03/23 01:38:55;;;;;;;15.20;10.05;;;10.60;99.90;;;;;;5017841;28;20079;-74
2023/03/23 01:41:22;;;;;;;15.93;10.95;;;10.60;99.90;;;;;;5051687;28;20049;-73
2023/03/23 01:44:03;;;;;;;21.20;10.93;;;10.60;99.90;;;;;;5033488;28;20401;-72
2023/03/23 01:46:31;;;;;;;15.20;10.13;;;10.60;99.90;;;;;;5034081;28;20403;-71
2023/03/23 01:49:08;;;;;;;19.95;11.07;;;10.60;99.90;;;;;;5033825;28;20037;-71
2023/03/23 01:51:39;;;;;;;16.17;10.90;;;10.60;99.90;;;;;;5051342;28;20040;-72
2023/03/23 01:54:08;;;;;;;18.05;12.15;;;10.60;99.90;;;;;;5034130;28;20036;-72
2023/03/23 01:56:51;;;;;;;16.98;10.45;;;10.60;99.90;;;;;;5033852;28;20037;-72
2023/03/23 01:59:18;;;;;;;14.00;9.35;;;10.70;99.90;;;;;;5032819;28;20037;-72
2023/03/23 02:01:52;;;;;;;13.55;8.68;;;10.60;99.90;;;;;;5051811;28;20076;-72
2023/03/23 02:04:24;;;;;;;13.32;9.20;;;10.60;99.90;;;;;;5051389;28;20461;-71
2023/03/23 02:06:51;;;;;;;14.43;8.85;;;10.70;99.90;;;;;;5051644;28;20076;-72
2023/03/23 02:09:17;;;;;;;14.68;8.63;;;10.70;99.90;;;;;;5051282;28;20490;-72
2023/03/23 02:11:45;;;;;;;15.07;9.02;;;10.60;99.90;;;;;;5031526;28;20048;-72
2023/03/23 02:14:11;;;;;;;12.77;8.57;;;10.70;99.90;;;;;;5033092;28;20056;-71
2023/03/23 02:16:55;;;;;;;12.85;6.47;;;10.70;99.90;;;;;;5034040;28;20500;-71
2023/03/23 02:19:42;;;;;;;13.27;6.70;;;10.70;99.90;;;;;;5032312;28;20056;-72
2023/03/23 02:22:48;;;;;;;11.93;6.80;;;10.80;99.90;;;;;;5016927;28;20076;-72
2023/03/23 02:25:37;;;;;;;11.63;6.35;;;10.90;99.90;;;;;;5001836;28;20445;-72
2023/03/23 02:28:24;;;;;;;13.35;7.13;;;10.80;99.90;;;;;;5051518;28;20398;-71
2023/03/23 02:30:52;;;;;;;10.07;5.82;;;10.80;99.90;;;;;;5033770;28;20482;-72
2023/03/23 02:33:40;;;;;;;13.48;6.22;;;10.90;99.90;;;;;;5051048;28;20111;-72
2023/03/23 02:36:19;;;;;;;14.65;6.88;;;10.90;99.90;;;;;;5037079;28;20131;-72
2023/03/23 02:39:02;;;;;;;10.20;5.70;;;10.90;99.90;;;;;;5037252;28;20045;-72
2023/03/23 02:41:31;;;;;;;11.48;5.80;;;10.90;99.90;;;;;;5036371;28;20057;-72
2023/03/23 02:43:58;;;;;;;14.25;6.95;;;10.90;99.90;;;;;;5055498;28;20084;-72
2023/03/23 02:46:25;;;;;;;8.68;5.60;;;10.90;99.90;;;;;;5036621;28;20037;-73
2023/03/23 02:48:53;;;;;;;8.35;4.63;;;10.90;99.90;;;;;;5054673;28;20120;-73
2023/03/23 02:51:20;;;;;;;10.02;5.25;;;10.90;99.90;;;;;;5054273;28;20036;-72
2023/03/23 02:53:49;;;;;;;10.20;5.63;;;10.90;99.90;;;;;;5036355;28;20073;-73
2023/03/23 02:56:15;;;;;;;12.10;5.45;;;10.90;99.90;;;;;;5054445;28;20497;-73
2023/03/23 02:58:41;;;;;;;12.75;6.15;;;10.90;99.90;;;;;;5020788;28;20136;-74
2023/03/23 03:01:36;;;;;;;14.40;5.95;;;10.90;99.90;;;;;;5035554;28;20573;-74
2023/03/23 03:04:12;;;;;;;12.50;6.85;;;10.90;99.90;;;;;;5054541;28;20481;-75
2023/03/23 03:06:59;;;;;;;10.40;5.63;;;11.00;99.90;;;;;;5035630;28;20037;-74
2023/03/23 03:09:30;;;;;;;8.63;4.97;;;10.90;99.90;;;;;;5019115;28;20098;-74
2023/03/23 03:12:04;;;;;;;10.25;5.35;;;10.90;99.90;;;;;;5037231;28;20037;-74
2023/03/23 03:14:37;;;;;;;10.80;4.90;;;10.90;99.90;;;;;;5037027;28;20588;-76
2023/03/23 03:17:26;;;;;;;14.95;5.90;;;10.90;99.90;;;;;;5035809;28;20056;-76
2023/03/23 03:20:03;;;;;;;9.65;5.20;;;10.90;99.90;;;;;;5053695;28;20052;-76
2023/03/23 03:22:29;;;;;;;11.07;5.25;;;10.80;99.90;;;;;;5035848;28;20077;-75
2023/03/23 03:24:57;;;;;;;9.73;5.45;;;10.90;99.90;;;;;;5054446;28;20044;-76
2023/03/23 03:27:24;;;;;;;10.18;5.28;;;10.90;99.90;;;;;;5036100;28;20040;-76
2023/03/23 03:29:58;;;;;;;9.25;5.35;;;10.90;99.90;;;;;;5053425;28;20490;-74
2023/03/23 03:32:38;;;;;;;11.05;5.57;;;10.90;99.90;;;;;;5036004;28;20044;-75
2023/03/23 03:35:05;;;;;;;9.32;3.92;;;10.90;99.90;;;;;;5036170;28;20098;-73
2023/03/23 03:37:39;;;;;;;12.05;4.30;;;10.90;99.90;;;;;;5035737;28;20053;-74
2023/03/23 03:40:18;;;;;;;9.07;4.50;;;10.80;99.90;;;;;;5025449;28;20053;-74
2023/03/23 03:42:45;;;;;;;8.70;3.88;;;10.80;99.90;;;;;;5016225;28;20082;-75
2023/03/23 03:45:15;;;;;;;8.45;4.43;;;10.80;99.90;;;;;;5032463;28;20061;-74
2023/03/23 03:47:40;;;;;;;10.02;4.78;;;10.70;99.90;;;;;;5016274;28;20518;-74
2023/03/23 03:50:07;;;;;;;10.65;4.65;;;10.70;99.90;;;;;;5014927;28;20092;-73
2023/03/23 03:52:33;;;;;;;8.90;4.25;;;10.60;99.90;;;;;;5016385;28;20037;-71
2023/03/23 03:54:59;;;;;;;8.65;4.70;;;10.60;99.90;;;;;;5000091;28;20045;-72
2023/03/23 03:57:25;;;;;;;7.65;4.45;;;10.60;99.90;;;;;;5015037;28;20041;-73
2023/03/23 03:59:51;;;;;;;10.45;5.90;;;10.50;99.90;;;;;;5034024;28;20419;-70
2023/03/23 04:02:19;;;;;;;12.85;5.20;;;10.50;99.90;;;;;;5015340;28;20077;-71
2023/03/23 04:04:49;;;;;;;10.73;4.85;;;10.50;99.90;;;;;;5015135;28;20434;-73
2023/03/23 04:07:18;;;;;;;11.95;4.70;;;10.50;99.90;;;;;;5015689;28;20033;-72
2023/03/23 04:09:48;;;;;;;13.18;4.82;;;10.50;99.90;;;;;;5033913;28;20041;-72
2023/03/23 04:12:15;;;;;;;10.57;4.13;;;10.40;99.90;;;;;;4998063;28;20553;-71
2023/03/23 04:14:41;;;;;;;7.88;3.75;;;10.50;99.90;;;;;;5015948;28;20040;-73
2023/03/23 04:17:08;;;;;;;10.20;4.85;;;10.40;99.90;;;;;;5032591;28;20444;-72
2023/03/23 04:19:36;;;;;;;11.98;4.53;;;10.40;99.90;;;;;;5032970;28;20084;-72
2023/03/23 04:22:03;;;;;;;9.50;5.13;;;10.40;99.90;;;;;;4999527;28;20037;-73
2023/03/23 04:24:31;;;;;;;10.60;4.95;;;10.40;99.90;;;;;;5033354;28;20053;-73
2023/03/23 04:26:57;;;;;;;9.38;3.83;;;10.40;99.90;;;;;;5032741;28;20120;-73
2023/03/23 04:29:23;;;;;;;6.50;3.03;;;10.40;99.90;;;;;;5015281;28;20130;-73
2023/03/23 04:31:50;;;;;;;11.30;3.70;;;10.40;99.90;;;;;;5033091;28;20037;-72
2023/03/23 04:34:16;;;;;;;9.38;3.15;;;10.30;99.90;;;;;;5014489;28;20391;-72
2023/03/23 04:36:42;;;;;;;9.88;2.67;;;10.30;99.90;;;;;;5015566;28;20044;-73
2023/03/23 04:39:09;;;;;;;11.57;3.83;;;10.30;99.90;;;;;;5001047;28;20041;-72
2023/03/23 04:41:39;;;;;;;9.25;2.90;;;10.30;99.90;;;;;;5035141;28;20037;-73
2023/03/23 04:44:06;;;;;;;13.20;4.22;;;10.20;99.90;;;;;;5024903;28;20033;-74
2023/03/23 04:46:32;;;;;;;12.38;3.83;;;10.20;99.90;;;;;;5014495;28;20049;-73
2023/03/23 04:48:59;;;;;;;11.52;3.42;;;10.20;99.90;;;;;;5015368;28;20071;-72
2023/03/23 04:51:26;;;;;;;11.73;3.72;;;10.20;99.90;;;;;;5014616;28;20091;-72
2023/03/23 04:53:53;;;;;;;13.68;3.65;;;10.20;99.90;;;;;;5031986;28;20037;-73
2023/03/23 04:56:19;;;;;;;12.77;3.30;;;10.20;99.90;;;;;;5013933;28;20038;-72
2023/03/23 04:58:46;;;;;;;13.82;4.22;;;10.20;99.90;;;;;;5014951;28;20053;-72
2023/03/23 05:01:17;;;;;;;14.23;3.83;;;10.20;99.90;;;;;;5031390;28;20509;-72
2023/03/23 05:03:43;;;;;;;11.20;3.50;;;10.20;99.90;;;;;;5015357;28;20111;-73
2023/03/23 05:06:09;;;;;;;9.55;3.63;;;10.20;99.90;;;;;;5014374;28;20041;-73
2023/03/23 05:08:38;;;;;;;10.63;3.20;;;10.20;99.90;;;;;;5034029;28;20110;-73
2023/03/23 05:11:05;;;;;;;22.15;4.15;;;10.20;99.90;;;;;;5014785;28;20049;-72
2023/03/23 05:13:31;;;;;;;18.70;3.80;;;10.10;99.90;;;;;;5014770;28;20048;-73
2023/03/23 05:15:57;;;;;;;15.40;3.72;;;10.10;99.90;;;;;;5014284;28;20041;-73
2023/03/23 05:18:23;;;;;;;15.93;4.10;;;10.10;99.90;;;;;;5014642;28;20094;-73
2023/03/23 05:20:52;;;;;;;16.80;3.60;;;10.10;99.90;;;;;;5015093;28;20049;-73
2023/03/23 05:23:20;;;;;;;20.88;4.43;;;10.10;99.90;;;;;;5013314;28;20045;-73
2023/03/23 05:25:53;;;;;;;19.50;4.28;;;10.10;99.90;;;;;;5014492;28;20048;-74
2023/03/23 05:28:21;;;;;;;14.52;4.18;;;10.20;99.90;;;;;;4997852;28;20053;-74
2023/03/23 05:30:48;;;;;;;15.77;4.32;;;10.10;99.90;;;;;;5014052;28;20042;-73
2023/03/23 05:33:13;;;;;;;15.88;4.03;;;10.10;99.90;;;;;;4997524;28;20119;-74
2023/03/23 05:35:39;;;;;;;13.98;4.53;;;10.10;99.90;;;;;;5013704;28;20068;-73
2023/03/23 05:38:05;;;;;;;17.75;4.13;;;10.00;99.90;;;;;;5027571;28;20102;-76
2023/03/23 05:40:30;;;;;;;15.48;4.85;;;9.90;99.90;;;;;;5051723;28;20064;-77
2023/03/23 05:42:58;;;;;;;17.80;4.45;;;9.90;99.90;;;;;;5051567;28;20124;-75
2023/03/23 05:45:26;;;;;;;17.30;5.03;;;9.90;99.90;;;;;;5051717;28;20095;-75
2023/03/23 05:47:51;;;;;;;19.38;5.32;;;9.90;99.90;;;;;;5018184;28;20370;-76
2023/03/23 05:50:18;;;;;;;20.90;5.07;;;9.90;99.90;;;;;;5050733;28;20082;-74
2023/03/23 05:52:44;;;;;;;22.75;4.43;;;9.90;99.90;;;;;;5051738;28;20393;-76
2023/03/23 05:55:11;;;;;;;18.83;4.20;;;9.90;99.90;;;;;;5051225;28;20041;-75
2023/03/23 05:57:37;;;;;;;18.75;4.90;;;9.90;99.90;;;;;;5033327;28;20037;-75
2023/03/23 06:00:11;;;;;;;25.60;4.85;;;9.90;99.90;;;;;;5051831;28;20041;-75
2023/03/23 06:02:37;;;;;;;15.05;4.25;;;9.90;99.90;;;;;;5034129;28;20123;-76
2023/03/23 06:05:04;;;;;;;13.57;3.58;;;9.90;99.90;;;;;;5026741;28;20116;-76
2023/03/23 06:07:30;;;;;;;11.73;4.50;;;9.90;99.90;;;;;;5032945;28;20037;-77
2023/03/23 06:09:55;;;;;;;11.82;2.50;;;9.90;99.90;;;;;;5018352;28;20099;-73
2023/03/23 06:12:21;;;;;;;11.40;2.55;;;9.70;99.90;;;;;;5017053;28;20045;-77
2023/03/23 06:14:48;;;;;;;13.63;3.17;;;9.70;99.90;;;;;;5018697;28;20033;-76
2023/03/23 06:17:17;;;;;;;8.93;2.33;;;9.60;99.90;;;;;;5035492;28;20064;-76
2023/03/23 06:19:43;;;;;;;10.70;3.60;;;9.60;99.90;;;;;;5035112;28;20038;-76
2023/03/23 06:22:10;;;;;;;11.38;2.95;;;9.60;99.90;;;;;;5017853;28;20044;-76
2023/03/23 06:24:36;;;;;;;10.07;2.40;;;9.50;99.90;;;;;;5001722;28;20042;-76
2023/03/23 06:27:01;;;;;;;8.65;2.65;;;9.50;99.90;;;;;;5034992;28;20040;-74
2023/03/23 06:29:28;;;;;;;12.98;3.25;;;9.40;99.90;;;;;;5017675;28;20475;-74
2023/03/23 06:32:00;;;;;;;12.20;2.65;;;9.50;99.90;;;;;;5034998;28;20409;-75
2023/03/23 06:34:26;;;;;;;9.70;3.10;;;9.40;99.90;;;;;;5035559;28;20088;-75
2023/03/23 06:36:52;;;;;;;9.40;2.78;;;9.40;99.90;;;;;;5022436;28;20041;-75
2023/03/23 06:39:18;;;;;;;9.18;2.28;;;9.30;99.90;;;;;;5021827;28;20076;-74
2023/03/23 06:41:43;;;;;;;8.65;2.72;;;9.30;99.90;;;;;;5035462;28;20041;-74
2023/03/23 06:44:12;;;;;;;9.75;2.30;;;9.30;99.90;;;;;;5039593;28;20038;-74
2023/03/23 06:46:39;;;;;;;9.70;2.47;;;9.30;99.90;;;;;;5047539;28;20055;-74
2023/03/23 06:49:05;;;;;;;14.00;3.13;;;9.40;99.90;;;;;;5046604;28;20126;-74
2023/03/23 06:51:31;;;;;;;13.57;3.58;;;9.40;99.90;;;;;;5052958;28;20076;-75
2023/03/23 06:54:00;;;;;;;11.40;2.95;;;9.40;99.90;;;;;;5024286;28;20064;-77
2023/03/23 06:56:26;;;;;;;11.55;3.67;;;9.40;99.90;;;;;;5017307;28;20144;-77
2023/03/23 06:58:52;;;;;;;12.20;3.17;;;9.50;99.90;;;;;;5037244;28;20060;-76
2023/03/23 07:01:18;;;;;;;15.55;3.53;;;9.50;99.90;;;;;;5015868;28;20041;-75
2023/03/23 07:03:44;;;;;;;16.85;4.75;;;9.50;99.90;;;;;;5005328;28;20048;-74
2023/03/23 07:06:10;;;;;;;19.92;4.53;;;9.50;99.90;;;;;;5033927;28;20042;-74
2023/03/23 07:08:36;;;;;;;23.90;4.57;;;9.60;99.90;;;;;;5018789;28;20040;-74
2023/03/23 07:11:03;;;;;;;12.80;4.20;;;9.60;99.90;;;;;;5032004;28;20043;-74
2023/03/23 07:13:29;;;;;;;15.55;4.78;;;9.70;99.90;;;;;;5014138;28;20038;-75
2023/03/23 07:15:54;;;;;;;21.17;5.43;;;9.80;99.90;;;;;;5031009;28;20041;-75
2023/03/23 07:18:20;;;;;;;18.05;4.95;;;9.80;99.90;;;;;;4997418;28;20184;-73
2023/03/23 07:20:51;;;;;;;17.30;4.68;;;9.90;99.90;;;;;;5013657;28;20048;-73
2023/03/23 07:23:18;;;;;;;21.33;6.15;;;10.00;99.90;;;;;;5021497;28;20084;-76
2023/03/23 07:25:45;;;;;;;22.23;5.97;;;10.00;99.90;;;;;;5008178;28;20044;-74
2023/03/23 07:28:11;;;;;;;25.30;6.03;;;10.10;99.90;;;;;;5027721;28;20405;-75
2023/03/23 07:30:37;;;;;;;20.45;7.35;;;10.10;99.90;;;;;;5017865;28;20482;-74
2023/03/23 07:33:08;;;;;;;22.85;5.90;;;10.20;99.90;;;;;;5028648;28;20098;-75
2023/03/23 07:35:34;;;;;;;22.90;7.47;;;10.30;99.90;;;;;;5042039;28;20048;-74
2023/03/23 07:38:00;;;;;;;20.55;5.75;;;10.30;99.90;;;;;;5033211;28;20145;-74
2023/03/23 07:40:26;;;;;;;22.08;7.10;;;10.30;99.90;;;;;;5021261;28;20564;-75
2023/03/23 07:42:56;;;;;;;23.02;6.40;;;10.40;99.90;;;;;;5015100;28;20367;-75
2023/03/23 07:45:23;;;;;;;21.02;6.05;;;10.40;99.90;;;;;;4990791;28;20746;-74
2023/03/23 07:47:48;;;;;;;17.08;5.32;;;10.40;99.90;;;;;;4995378;28;20076;-74
2023/03/23 07:50:15;;;;;;;23.02;6.85;;;10.40;99.90;;;;;;4994218;28;20077;-74
2023/03/23 07:52:43;;;;;;;27.48;6.82;;;10.50;99.90;;;;;;4995355;28;20041;-75
2023/03/23 07:55:17;;;;;;;21.42;5.85;;;10.50;99.90;;;;;;5011832;28;20046;-75
2023/03/23 07:57:47;;;;;;;21.17;6.30;;;10.60;99.90;;;;;;5029144;28;20068;-75
2023/03/23 08:00:18;;;;;;;17.02;5.45;;;10.60;99.90;;;;;;5011030;28;20651;-74
2023/03/23 08:02:45;;;;;;;22.33;6.32;;;10.70;99.90;;;;;;5010508;28;20073;-75
2023/03/23 08:05:13;;;;;;;21.35;6.18;;;10.80;99.90;;;;;;5009713;28;20054;-75
2023/03/23 08:07:40;;;;;;;17.80;6.03;;;10.90;99.90;;;;;;4996220;28;20046;-76
2023/03/23 08:10:10;;;;;;;26.88;6.50;;;11.00;99.90;;;;;;5029756;28;20080;-75
2023/03/23 08:12:37;;;;;;;22.60;6.18;;;11.10;99.90;;;;;;4999939;28;20046;-75
2023/03/23 08:15:04;;;;;;;24.48;6.07;;;11.10;99.90;;;;;;5015388;28;20045;-76
2023/03/23 08:17:31;;;;;;;23.27;6.72;;;11.10;99.90;;;;;;5015569;28;20080;-75
2023/03/23 08:19:57;;;;;;;29.02;7.50;;;11.20;99.90;;;;;;5015833;28;20045;-77
2023/03/23 08:22:23;;;;;;;23.48;7.07;;;11.20;99.90;;;;;;4995480;28;20085;-75
2023/03/23 08:24:49;;;;;;;22.77;6.80;;;11.20;99.90;;;;;;5013908;28;20070;-77
2023/03/23 08:27:14;;;;;;;23.00;7.38;;;11.20;99.90;;;;;;4995151;28;20044;-75
2023/03/23 08:29:40;;;;;;;25.15;6.93;;;11.30;99.90;;;;;;4979852;28;20038;-75
2023/03/23 08:32:06;;;;;;;17.67;5.47;;;11.30;99.90;;;;;;5003147;28;20064;-75
2023/03/23 08:34:32;;;;;;;25.20;5.30;;;11.30;99.90;;;;;;5001013;28;20475;-72
2023/03/23 08:36:58;;;;;;;24.23;5.53;;;11.30;99.90;;;;;;4977951;28;20092;-74
2023/03/23 08:39:24;;;;;;;23.23;6.95;;;11.40;99.90;;;;;;4983301;28;20107;-74
2023/03/23 08:41:51;;;;;;;17.85;5.63;;;11.40;99.90;;;;;;5022516;28;20037;-74
2023/03/23 08:44:17;;;;;;;19.80;5.82;;;11.50;99.90;;;;;;5051588;28;20055;-74
2023/03/23 08:46:44;;;;;;;28.70;6.82;;;11.60;99.90;;;;;;5050918;28;20049;-73
2023/03/23 08:49:09;;;;;;;21.30;6.38;;;11.60;99.90;;;;;;5032959;28;20041;-74
2023/03/23 08:51:35;;;;;;;25.20;6.32;;;11.50;99.90;;;;;;5033527;28;20779;-74
2023/03/23 08:54:01;;;;;;;25.30;5.10;;;11.50;99.90;;;;;;5051490;28;20078;-75
2023/03/23 08:56:27;;;;;;;19.27;5.65;;;11.50;99.90;;;;;;5034565;28;20473;-75
2023/03/23 08:58:55;;;;;;;18.17;5.65;;;11.60;99.90;;;;;;5050901;28;20072;-75
2023/03/23 09:01:20;;;;;;;24.30;5.97;;;11.60;99.90;;;;;;5014789;28;20164;-77
2023/03/23 09:03:46;;;;;;;30.42;7.45;;;11.70;99.90;;;;;;5015569;28;20478;-76
2023/03/23 09:06:12;;;;;;;22.85;6.22;;;11.90;99.90;;;;;;5026363;28;20053;-74
2023/03/23 09:08:39;;;;;;;23.20;6.35;;;12.00;99.90;;;;;;5018199;28;20037;-74
2023/03/23 09:11:10;;;;;;;16.45;5.18;;;12.10;99.90;;;;;;5034217;28;20044;-73
2023/03/23 09:13:38;;;;;;;20.10;5.38;;;12.10;99.90;;;;;;5018349;28;20045;-73
2023/03/23 09:16:04;;;;;;;24.35;6.18;;;12.20;99.90;;;;;;5052490;28;20119;-75
2023/03/23 09:18:32;;;;;;;20.50;6.30;;;12.10;99.90;;;;;;5030031;28;20049;-75
2023/03/23 09:20:58;;;;;;;25.48;6.95;;;12.10;99.90;;;;;;5050784;28;20037;-74
2023/03/23 09:23:24;;;;;;;22.08;7.03;;;12.10;99.90;;;;;;5014372;28;20049;-74
2023/03/23 09:25:51;;;;;;;22.02;6.57;;;12.00;99.90;;;;;;5014697;28;20070;-74
2023/03/23 09:28:18;;;;;;;23.33;6.13;;;12.10;99.90;;;;;;5034055;28;20037;-75
2023/03/23 09:30:45;;;;;;;23.25;6.22;;;12.20;99.90;;;;;;5012791;28;20540;-72
2023/03/23 09:33:11;;;;;;;26.13;6.25;;;12.30;99.90;;;;;;5014489;28;20089;-73
2023/03/23 09:35:38;;;;;;;20.83;6.32;;;12.40;99.90;;;;;;5039804;28;20122;-69
2023/03/23 09:38:05;;;;;;;17.85;5.72;;;12.40;99.90;;;;;;5033936;28;20120;-72
2023/03/23 09:40:48;;;;;;;22.05;6.32;;;12.30;99.90;;;;;;5001010;28;20061;-73
2023/03/23 09:43:20;;;;;;;17.27;5.65;;;12.30;99.90;;;;;;5026429;28;20045;-70
2023/03/23 09:46:03;;;;;;;15.90;5.18;;;12.30;99.90;;;;;;5012649;28;20044;-71
2023/03/23 09:48:44;;;;;;;23.90;6.75;;;12.30;99.90;;;;;;5027635;28;20045;-71
2023/03/23 09:51:27;;;;;;;21.50;5.22;;;12.20;99.90;;;;;;4994832;28;20170;-71
2023/03/23 09:53:58;;;;;;;17.10;6.03;;;12.30;99.90;;;;;;4995097;28;20422;-71
2023/03/23 09:56:30;;;;;;;16.58;5.20;;;12.30;99.90;;;;;;5004578;28;20996;-71
2023/03/23 09:59:02;;;;;;;14.70;4.45;;;12.30;99.90;;;;;;5014675;28;20037;-72
2023/03/23 10:01:36;;;;;;;19.30;5.95;;;12.30;99.90;;;;;;5000208;28;20156;-72
2023/03/23 10:04:35;;;;;;;23.90;5.53;;;12.40;99.90;;;;;;4992655;28;20159;-71
2023/03/23 10:07:17;;;;;;;18.15;5.85;;;12.50;99.90;;;;;;5006426;28;20445;-72
2023/03/23 10:09:46;;;;;;;24.13;4.90;;;12.70;99.90;;;;;;5012715;28;20144;-72
2023/03/23 10:12:38;;;;;;;23.10;5.80;;;12.80;99.90;;;;;;4994831;28;20126;-72
2023/03/23 10:15:30;;;;;;;18.80;5.15;;;12.70;99.90;;;;;;5012055;28;20042;-70
2023/03/23 10:18:04;;;;;;;24.23;5.93;;;12.70;99.90;;;;;;5012058;28;20104;-71
2023/03/23 10:20:57;;;;;;;22.25;5.10;;;12.80;99.90;;;;;;4994700;28;20038;-72
2023/03/23 10:23:22;;;;;;;16.38;5.25;;;12.90;99.90;;;;;;4994258;28;20044;-71
2023/03/23 10:25:53;;;;;;;17.48;4.88;;;12.90;99.90;;;;;;5006078;28;20037;-72
2023/03/23 10:28:23;;;;;;;30.23;5.88;;;12.90;99.90;;;;;;4994332;28;20049;-72
2023/03/23 10:30:53;;;;;;;16.90;4.90;;;12.90;99.90;;;;;;4995678;28;20069;-71
2023/03/23 10:33:38;;;;;;;18.27;5.50;;;13.00;99.90;;;;;;5028249;28;20033;-71
2023/03/23 10:36:12;;;;;;;17.45;5.25;;;12.90;99.90;;;;;;5031510;28;20111;-74
2023/03/23 10:39:08;;;;;;;15.68;5.03;;;12.80;99.90;;;;;;5002182;28;20037;-66
2023/03/23 10:41:35;;;;;;;17.45;4.78;;;12.60;99.90;;;;;;5014969;28;20052;-74
2023/03/23 10:44:07;;;;;;;22.35;6.00;;;12.40;99.90;;;;;;5013601;28;20120;-73
2023/03/23 10:46:53;;;;;;;16.38;5.55;;;12.30;99.90;;;;;;5031510;28;20041;-73
2023/03/23 10:49:45;;;;;;;17.88;5.18;;;12.20;99.90;;;;;;5013794;28;20045;-73
2023/03/23 10:52:37;;;;;;;13.45;5.32;;;12.10;99.90;;;;;;5024772;28;20068;-73
2023/03/23 10:55:18;;;;;;;20.40;5.63;;;12.10;99.90;;;;;;5015845;28;20379;-73
2023/03/23 10:58:05;;;;;;;26.60;5.78;;;12.00;99.90;;;;;;5035233;28;20049;-74
2023/03/23 11:00:32;;;;;;;20.42;6.88;;;12.00;99.90;;;;;;5016667;28;20057;-77
2023/03/23 11:03:07;;;;;;;17.58;5.22;;;12.00;99.90;;;;;;5001115;28;20049;-72
2023/03/23 11:05:52;;;;;;;21.88;5.10;;;12.10;99.90;;;;;;5017409;28;20045;-70
2023/03/23 11:08:21;;;;;;;15.75;4.43;;;12.30;99.90;;;;;;4999619;28;20045;-71
2023/03/23 11:10:56;;;;;;;13.80;4.20;;;12.60;99.90;;;;;;5017192;28;20034;-72
2023/03/23 11:13:28;;;;;;;13.95;4.35;;;12.60;99.90;;;;;;5033665;28;20148;-72
2023/03/23 11:15:54;;;;;;;18.05;5.78;;;12.50;99.90;;;;;;5017253;28;20087;-71
2023/03/23 11:18:23;;;;;;;19.27;4.03;;;12.40;99.90;;;;;;5016740;28;20077;-70
2023/03/23 11:20:56;;;;;;;14.35;4.38;;;12.50;99.90;;;;;;5034134;28;20368;-72
2023/03/23 11:23:27;;;;;;;16.55;5.18;;;12.60;99.90;;;;;;5034115;28;20045;-74
2023/03/23 11:26:05;;;;;;;16.77;4.30;;;12.70;99.90;;;;;;5034769;28;20124;-70
2023/03/23 11:28:35;;;;;;;13.60;3.78;;;12.80;99.90;;;;;;5016227;28;20049;-73
2023/03/23 11:31:03;;;;;;;15.57;4.20;;;12.90;99.90;;;;;;5016513;28;20041;-71
2023/03/23 11:33:35;;;;;;;14.15;4.13;;;13.00;99.90;;;;;;5000172;28;20037;-71
2023/03/23 11:36:01;;;;;;;17.38;4.15;;;12.90;99.90;;;;;;5016021;28;20110;-77
2023/03/23 11:38:27;;;;;;;21.27;4.75;;;12.80;99.90;;;;;;5034139;28;20463;-72
2023/03/23 11:40:54;;;;;;;19.55;4.70;;;12.60;99.90;;;;;;5016298;28;20057;-71
2023/03/23 11:43:24;;;;;;;11.65;4.20;;;12.70;99.90;;;;;;4998661;28;20469;-70
2023/03/23 11:46:17;;;;;;;17.15;4.68;;;12.80;99.90;;;;;;5016421;28;20041;-71
2023/03/23 11:49:02;;;;;;;16.20;4.65;;;12.80;99.90;;;;;;5016010;28;20042;-72
2023/03/23 11:51:31;;;;;;;10.98;2.92;;;12.80;99.90;;;;;;5016195;28;20037;-73
2023/03/23 11:54:02;;;;;;;13.88;3.58;;;13.10;99.90;;;;;;5034227;28;20492;-71
2023/03/23 11:56:34;;;;;;;12.20;4.10;;;13.20;99.90;;;;;;4998752;28;20080;-72
2023/03/23 11:59:04;;;;;;;22.75;5.95;;;13.40;99.90;;;;;;5016312;28;20502;-72
2023/03/23 12:01:37;;;;;;;19.33;4.20;;;13.50;99.90;;;;;;5016442;28;20429;-72
2023/03/23 12:04:27;;;;;;;14.70;3.20;;;13.50;99.90;;;;;;5033217;28;20391;-70
2023/03/23 12:07:23;;;;;;;14.50;3.78;;;13.40;99.90;;;;;;5033677;28;20489;-70
2023/03/23 12:10:15;;;;;;;15.77;4.82;;;13.40;99.90;;;;;;5015208;28;20037;-71
2023/03/23 12:12:48;;;;;;;15.38;4.45;;;13.50;99.90;;;;;;4999880;28;20046;-73
2023/03/23 12:15:36;;;;;;;14.52;4.35;;;13.70;99.90;;;;;;5033321;28;20048;-72
2023/03/23 12:18:24;;;;;;;19.25;4.28;;;13.80;99.90;;;;;;5015037;28;20073;-72
2023/03/23 12:21:34;;;;;;;14.15;3.85;;;13.90;99.90;;;;;;5033856;28;20060;-72
2023/03/23 12:24:29;;;;;;;11.27;3.28;;;13.80;99.90;;;;;;4990598;28;20099;-74
2023/03/23 12:27:24;;;;;;;23.27;5.40;;;13.70;99.90;;;;;;5016220;28;20401;-73
2023/03/23 12:29:50;;;;;;;;;;;13.90;99.90;;;;;;5016346;28;20047;-73
2023/03/23 12:32:47;;;;;;;12.82;3.53;;;14.10;99.90;;;;;;5032353;28;19917;-72
2023/03/23 12:35:38;;;;;;;14.30;4.15;;;14.10;99.90;;;;;;5015218;28;20055;-74
2023/03/23 12:38:16;;;;;;;25.42;4.95;;;14.10;99.90;;;;;;4998173;28;20042;-71
2023/03/23 12:41:16;;;;;;;14.30;3.88;;;13.90;99.90;;;;;;5033259;28;20107;-71
2023/03/23 12:44:01;;;;;;;13.35;3.85;;;13.80;99.90;;;;;;5033407;28;20048;-73
2023/03/23 12:46:58;;;;;;;22.08;5.25;;;13.90;99.90;;;;;;5014403;28;20083;-73
2023/03/23 12:49:32;;;;;;;14.48;4.78;;;14.00;99.90;;;;;;5007347;28;20156;-73
2023/03/23 12:52:04;;;;;;;15.40;4.50;;;14.10;99.90;;;;;;5015347;28;20041;-72
2023/03/23 12:54:33;;;;;;;13.88;4.50;;;14.10;99.90;;;;;;4999098;28;20076;-74
2023/03/23 12:57:18;;;;;;;16.02;4.35;;;14.10;99.90;;;;;;5015617;28;20390;-74
2023/03/23 13:00:11;;;;;;;17.83;3.78;;;14.00;99.90;;;;;;5014689;28;20049;-73